createdAt,value
2018-12-05T00:00:18.218Z,5.57
2018-12-05T00:03:03.063Z,6.07
2018-12-05T00:05:31.085Z,5.93
2018-12-05T00:07:59.058Z,6.78
2018-12-05T00:10:27.034Z,4.77
2018-12-05T00:12:55.029Z,5.95
2018-12-05T00:15:22.997Z,5.20
2018-12-05T00:17:50.929Z,5.03
2018-12-05T00:20:18.938Z,5.20
2018-12-05T00:22:46.936Z,5.58
2018-12-05T00:25:14.865Z,6.10
2018-12-05T00:27:42.809Z,5.72
2018-12-05T00:30:10.756Z,5.33
2018-12-05T00:32:38.753Z,5.37
2018-12-05T00:35:06.759Z,5.57
2018-12-05T00:37:34.691Z,5.30
2018-12-05T00:40:02.805Z,5.50
2018-12-05T00:42:30.787Z,5.70
2018-12-05T00:44:58.738Z,5.65
2018-12-05T00:47:26.738Z,5.27
2018-12-05T00:49:54.704Z,5.47
2018-12-05T00:52:22.713Z,5.12
2018-12-05T00:54:50.658Z,5.40
2018-12-05T00:57:18.647Z,5.10
2018-12-05T00:59:46.640Z,5.40
2018-12-05T01:02:14.747Z,5.70
2018-12-05T01:04:42.924Z,5.80
2018-12-05T01:07:10.965Z,4.60
2018-12-05T01:09:40.188Z,5.80
2018-12-05T01:12:09.454Z,5.37
2018-12-05T01:14:37.455Z,5.90
2018-12-05T01:17:05.444Z,5.90
2018-12-05T01:19:33.382Z,6.17
2018-12-05T01:22:01.333Z,5.75
2018-12-05T01:24:29.322Z,5.70
2018-12-05T01:26:57.287Z,5.80
2018-12-05T01:29:25.263Z,6.03
2018-12-05T01:31:53.253Z,5.87
2018-12-05T01:34:21.211Z,6.95
2018-12-05T01:36:49.236Z,5.62
2018-12-05T01:39:17.185Z,6.25
2018-12-05T01:41:45.155Z,5.90
2018-12-05T01:44:13.082Z,5.65
2018-12-05T01:46:41.257Z,5.55
2018-12-05T01:49:09.248Z,6.40
2018-12-05T01:51:37.185Z,5.92
2018-12-05T01:54:05.175Z,6.20
2018-12-05T01:56:33.149Z,5.77
2018-12-05T01:59:01.212Z,6.25
2018-12-05T02:01:29.170Z,5.83
2018-12-05T02:03:57.142Z,5.12
2018-12-05T02:06:25.176Z,5.37
2018-12-05T02:08:53.193Z,6.17
2018-12-05T02:11:21.194Z,6.10
2018-12-05T02:13:49.263Z,5.17
2018-12-05T02:16:17.114Z,4.72
2018-12-05T02:18:45.052Z,5.15
2018-12-05T02:21:12.887Z,5.00
2018-12-05T02:23:40.714Z,5.17
2018-12-05T02:26:08.570Z,5.78
2018-12-05T02:28:36.424Z,5.50
2018-12-05T02:31:04.294Z,6.10
2018-12-05T02:33:32.177Z,5.70
2018-12-05T02:36:00.155Z,6.60
2018-12-05T02:38:27.978Z,5.65
2018-12-05T02:40:55.857Z,5.67
2018-12-05T02:43:23.805Z,6.30
2018-12-05T02:45:51.763Z,5.78
2018-12-05T02:48:19.706Z,6.50
2018-12-05T02:50:47.653Z,6.45
2018-12-05T02:53:15.592Z,6.85
2018-12-05T02:55:43.566Z,5.80
2018-12-05T02:58:11.530Z,6.12
2018-12-05T03:00:39.476Z,6.00
2018-12-05T03:03:07.486Z,5.97
2018-12-05T03:05:35.400Z,5.90
2018-12-05T03:08:03.438Z,6.15
2018-12-05T03:10:31.549Z,6.70
2018-12-05T03:12:59.624Z,6.60
2018-12-05T03:15:27.577Z,6.90
2018-12-05T03:17:55.573Z,5.80
2018-12-05T03:20:23.582Z,5.80
2018-12-05T03:22:51.743Z,7.20
2018-12-05T03:25:19.654Z,6.53
2018-12-05T03:27:47.640Z,6.95
2018-12-05T03:30:15.594Z,7.20
2018-12-05T03:32:43.576Z,7.50
2018-12-05T03:35:11.578Z,7.35
2018-12-05T03:37:39.562Z,6.37
2018-12-05T03:40:07.503Z,6.30
2018-12-05T03:42:35.454Z,5.90
2018-12-05T03:45:03.762Z,6.45
2018-12-05T03:47:31.717Z,6.22
2018-12-05T03:50:01.861Z,6.00
2018-12-05T03:52:30.563Z,6.00
2018-12-05T03:54:58.502Z,5.83
2018-12-05T03:57:26.528Z,6.40
2018-12-05T03:59:54.551Z,5.87
2018-12-05T04:02:22.621Z,6.75
2018-12-05T04:04:50.601Z,5.75
2018-12-05T04:07:18.512Z,5.75
2018-12-05T04:09:46.498Z,5.53
2018-12-05T04:12:14.423Z,5.62
2018-12-05T04:14:42.375Z,5.50
2018-12-05T04:17:10.294Z,4.78
2018-12-05T04:19:38.245Z,5.30
2018-12-05T04:22:06.233Z,5.25
2018-12-05T04:24:34.178Z,6.60
2018-12-05T04:27:02.120Z,5.22
2018-12-05T04:29:30.069Z,6.60
2018-12-05T04:31:58.011Z,6.33
2018-12-05T04:34:25.927Z,6.85
2018-12-05T04:36:53.861Z,6.45
2018-12-05T04:39:21.868Z,7.03
2018-12-05T04:41:50.090Z,7.53
2018-12-05T04:44:18.048Z,5.87
2018-12-05T04:46:45.999Z,7.08
2018-12-05T04:49:13.974Z,6.35
2018-12-05T04:51:41.923Z,6.37
2018-12-05T04:54:09.858Z,6.42
2018-12-05T04:56:37.788Z,6.85
2018-12-05T04:59:05.779Z,7.10
2018-12-05T05:01:33.752Z,6.97
2018-12-05T05:04:01.747Z,6.85
2018-12-05T05:06:29.707Z,5.55
2018-12-05T05:08:57.683Z,6.17
2018-12-05T05:11:25.662Z,7.10
2018-12-05T05:13:53.669Z,6.03
2018-12-05T05:16:21.657Z,6.70
2018-12-05T05:18:49.585Z,6.20
2018-12-05T05:21:17.543Z,5.70
2018-12-05T05:23:45.468Z,6.47
2018-12-05T05:26:13.449Z,5.40
2018-12-05T05:28:41.394Z,6.90
2018-12-05T05:31:09.306Z,5.83
2018-12-05T05:33:37.285Z,6.50
2018-12-05T05:36:07.266Z,6.20
2018-12-05T05:38:35.203Z,6.80
2018-12-05T05:41:03.136Z,7.40
2018-12-05T05:43:31.155Z,7.80
2018-12-05T05:45:59.091Z,7.83
2018-12-05T05:48:27.021Z,8.48
2018-12-05T05:50:54.964Z,7.65
2018-12-05T05:53:22.881Z,7.80
2018-12-05T05:55:50.881Z,7.40
2018-12-05T05:58:18.821Z,7.50
2018-12-05T06:00:46.777Z,6.78
2018-12-05T06:03:14.733Z,7.92
2018-12-05T06:05:42.702Z,6.10
2018-12-05T06:08:10.689Z,7.17
2018-12-05T06:10:38.651Z,6.30
2018-12-05T06:13:06.637Z,7.72
2018-12-05T06:15:34.634Z,8.48
2018-12-05T06:18:02.610Z,7.83
2018-12-05T06:20:30.556Z,7.97
2018-12-05T06:22:58.497Z,8.45
2018-12-05T06:25:26.423Z,6.72
2018-12-05T06:27:54.812Z,7.70
2018-12-05T06:30:22.758Z,8.15
2018-12-05T06:32:50.698Z,8.38
2018-12-05T06:35:18.672Z,8.45
2018-12-05T06:37:46.586Z,8.68
2018-12-05T06:40:14.531Z,9.30
2018-12-05T06:42:49.185Z,9.23
2018-12-05T06:45:17.146Z,9.85
2018-12-05T06:47:45.139Z,8.95
2018-12-05T06:50:13.102Z,9.60
2018-12-05T06:52:41.060Z,9.70
2018-12-05T06:55:09.006Z,9.18
2018-12-05T06:57:36.944Z,9.30
2018-12-05T07:00:05.790Z,9.45
2018-12-05T07:02:33.744Z,9.15
2018-12-05T07:05:01.712Z,9.25
2018-12-05T07:07:30.678Z,8.18
2018-12-05T07:09:58.630Z,8.35
2018-12-05T07:12:26.663Z,7.90
2018-12-05T07:14:54.642Z,7.80
2018-12-05T07:17:22.580Z,7.33
2018-12-05T07:19:50.539Z,6.40
2018-12-05T07:22:18.511Z,6.00
2018-12-05T07:24:46.593Z,6.00
2018-12-05T07:27:14.762Z,6.60
2018-12-05T07:29:42.712Z,5.90
2018-12-05T07:32:10.709Z,6.30
2018-12-05T07:34:38.675Z,6.57
2018-12-05T07:37:06.671Z,5.93
2018-12-05T07:39:34.633Z,5.93
2018-12-05T07:42:02.579Z,6.40
2018-12-05T07:44:30.538Z,6.17
2018-12-05T07:46:58.469Z,6.60
2018-12-05T07:49:26.425Z,6.73
2018-12-05T07:51:54.347Z,6.20
2018-12-05T07:54:22.359Z,6.70
2018-12-05T07:56:50.325Z,6.33
2018-12-05T07:59:18.342Z,6.23
2018-12-05T08:01:46.270Z,6.07
2018-12-05T08:04:14.335Z,5.97
2018-12-05T08:06:42.299Z,6.53
2018-12-05T08:09:10.241Z,6.50
2018-12-05T08:11:38.216Z,5.60
2018-12-05T08:14:07.330Z,8.77
2018-12-05T08:16:35.325Z,9.90
2018-12-05T08:19:03.278Z,9.47
2018-12-05T08:21:31.253Z,9.00
2018-12-05T08:23:59.271Z,8.63
2018-12-05T08:26:27.329Z,8.47
2018-12-05T08:28:55.302Z,7.60
2018-12-05T08:31:23.246Z,7.20
2018-12-05T08:33:51.286Z,7.23
2018-12-05T08:36:19.241Z,8.43
2018-12-05T08:38:47.185Z,7.80
2018-12-05T08:41:15.219Z,7.97
2018-12-05T08:43:44.596Z,7.23
2018-12-05T08:46:12.784Z,6.87
2018-12-05T08:48:40.767Z,6.97
2018-12-05T08:51:08.704Z,5.90
2018-12-05T08:53:36.666Z,5.27
2018-12-05T08:56:05.690Z,6.00
2018-12-05T08:58:33.692Z,6.40
2018-12-05T09:01:01.674Z,10.10
2018-12-05T09:03:29.699Z,8.93
2018-12-05T09:05:57.689Z,8.53
2018-12-05T09:08:25.608Z,8.20
2018-12-05T09:10:53.566Z,7.90
2018-12-05T09:13:21.581Z,7.00
2018-12-05T09:15:49.560Z,5.77
2018-12-05T09:18:17.504Z,6.97
2018-12-05T09:20:45.510Z,4.33
2018-12-05T09:23:13.464Z,3.30
2018-12-05T09:25:41.465Z,2.20
2018-12-05T09:28:09.392Z,4.60
2018-12-05T09:30:37.358Z,3.17
2018-12-05T09:33:05.324Z,2.80
2018-12-05T09:35:33.311Z,4.10
2018-12-05T09:38:01.225Z,3.67
2018-12-05T09:40:29.206Z,3.53
2018-12-05T09:42:57.158Z,3.63
2018-12-05T09:45:25.136Z,3.57
2018-12-05T09:47:53.075Z,3.47
2018-12-05T09:50:21.047Z,3.17
2018-12-05T09:52:49.010Z,3.10
2018-12-05T09:55:16.970Z,2.73
2018-12-05T09:57:44.921Z,2.27
2018-12-05T10:00:12.869Z,2.70
2018-12-05T10:02:40.816Z,2.60
2018-12-05T10:05:08.804Z,2.97
2018-12-05T10:07:36.754Z,2.40
2018-12-05T10:10:05.555Z,2.37
2018-12-05T10:12:33.485Z,2.90
2018-12-05T10:15:01.524Z,2.70
2018-12-05T10:17:29.485Z,2.53
2018-12-05T10:19:57.506Z,3.10
2018-12-05T10:22:25.553Z,2.70
2018-12-05T10:24:53.508Z,2.97
2018-12-05T10:27:21.477Z,3.27
2018-12-05T10:29:49.430Z,2.73
2018-12-05T10:32:17.386Z,2.43
2018-12-05T10:34:45.362Z,2.53
2018-12-05T10:37:13.285Z,2.30
2018-12-05T10:39:41.344Z,2.40
2018-12-05T10:42:09.346Z,2.63
2018-12-05T10:44:37.296Z,3.00
2018-12-05T10:47:05.290Z,3.07
2018-12-05T10:49:33.253Z,2.70
2018-12-05T10:52:01.215Z,2.20
2018-12-05T10:54:29.202Z,2.43
2018-12-05T10:56:57.205Z,3.23
2018-12-05T10:59:25.165Z,2.70
2018-12-05T11:02:05.871Z,2.53
2018-12-05T11:04:39.389Z,3.43
2018-12-05T11:07:09.251Z,2.60
2018-12-05T11:09:42.714Z,3.30
2018-12-05T11:12:16.166Z,3.90
2018-12-05T11:14:49.574Z,2.47
2018-12-05T11:17:23.090Z,2.80
2018-12-05T11:21:00.426Z,3.00
2018-12-05T11:23:34.047Z,2.87
2018-12-05T11:26:06.533Z,3.20
2018-12-05T11:28:35.550Z,5.37
2018-12-05T11:31:04.609Z,4.40
2018-12-05T11:33:32.612Z,4.27
2018-12-05T11:36:00.673Z,2.90
2018-12-05T11:38:28.653Z,3.23
2018-12-05T11:40:56.607Z,3.03
2018-12-05T11:43:24.560Z,2.80
2018-12-05T11:45:52.528Z,2.13
2018-12-05T11:48:20.518Z,2.30
2018-12-05T11:50:48.513Z,3.70
2018-12-05T11:53:16.501Z,3.20
2018-12-05T11:55:44.485Z,3.40
2018-12-05T11:58:12.482Z,2.80
2018-12-05T12:00:40.468Z,3.03
2018-12-05T12:03:08.463Z,2.57
2018-12-05T12:05:38.656Z,3.30
2018-12-05T12:08:06.751Z,3.20
2018-12-05T12:10:40.291Z,3.57
2018-12-05T12:13:10.143Z,3.83
2018-12-05T12:15:38.107Z,2.93
2018-12-05T12:18:06.143Z,3.60
2018-12-05T12:20:34.134Z,3.07
2018-12-05T12:23:02.101Z,3.17
2018-12-05T12:25:30.910Z,4.33
2018-12-05T12:27:58.926Z,3.22
2018-12-05T12:30:26.976Z,4.47
2018-12-05T12:32:55.001Z,3.58
2018-12-05T12:35:22.945Z,3.02
2018-12-05T12:37:52.055Z,3.40
2018-12-05T12:40:20.062Z,3.50
2018-12-05T12:42:48.005Z,6.10
2018-12-05T12:45:16.041Z,5.23
2018-12-05T12:47:44.010Z,4.57
2018-12-05T12:50:12.114Z,4.53
2018-12-05T12:52:40.116Z,3.70
2018-12-05T12:55:08.097Z,4.00
2018-12-05T12:57:36.209Z,4.63
2018-12-05T13:00:04.914Z,4.33
2018-12-05T13:02:32.972Z,4.40
2018-12-05T13:05:01.049Z,5.03
2018-12-05T13:07:29.111Z,4.80
2018-12-05T13:09:57.086Z,4.33
2018-12-05T13:12:28.613Z,3.90
2018-12-05T13:14:56.705Z,3.93
2018-12-05T13:17:24.716Z,4.60
2018-12-05T13:19:52.678Z,4.40
2018-12-05T13:22:20.627Z,3.47
2018-12-05T13:24:48.733Z,5.03
2018-12-05T13:27:16.699Z,4.83
2018-12-05T13:29:44.778Z,4.00
2018-12-05T13:32:12.762Z,3.60
2018-12-05T13:34:40.751Z,3.50
2018-12-05T13:37:08.713Z,3.67
2018-12-05T13:39:36.797Z,4.00
2018-12-05T13:42:04.725Z,4.03
2018-12-05T13:44:32.836Z,4.13
2018-12-05T13:47:00.794Z,3.95
2018-12-05T13:49:28.823Z,4.10
2018-12-05T13:51:56.801Z,4.37
2018-12-05T13:54:24.733Z,4.23
2018-12-05T13:56:52.792Z,4.12
2018-12-05T13:59:20.889Z,4.78
2018-12-05T14:01:48.892Z,4.90
2018-12-05T14:04:16.867Z,3.80
2018-12-05T14:06:44.897Z,4.42
2018-12-05T14:09:12.952Z,4.10
2018-12-05T14:11:41.068Z,3.93
2018-12-05T14:14:09.018Z,4.70
2018-12-05T14:16:36.962Z,3.93
2018-12-05T14:19:04.967Z,4.83
2018-12-05T14:21:32.966Z,5.42
2018-12-05T14:24:00.996Z,4.33
2018-12-05T14:26:28.943Z,3.90
2018-12-05T14:28:56.883Z,5.03
2018-12-05T14:31:24.878Z,4.93
2018-12-05T14:33:52.879Z,4.65
2018-12-05T14:36:20.808Z,3.92
2018-12-05T14:38:48.758Z,4.42
2018-12-05T14:41:16.705Z,4.05
2018-12-05T14:43:44.691Z,4.00
2018-12-05T14:46:12.671Z,5.40
2018-12-05T14:48:40.682Z,3.92
2018-12-05T14:51:08.687Z,3.97
2018-12-05T14:53:36.688Z,4.65
2018-12-05T14:56:04.633Z,4.65
2018-12-05T14:58:32.614Z,4.85
2018-12-05T15:01:00.697Z,4.60
2018-12-05T15:03:29.657Z,4.65
2018-12-05T15:05:57.578Z,4.33
2018-12-05T15:08:25.567Z,4.95
2018-12-05T15:10:53.601Z,4.45
2018-12-05T15:13:21.558Z,4.45
2018-12-05T15:15:49.577Z,4.72
2018-12-05T15:18:17.544Z,4.30
2018-12-05T15:20:45.503Z,4.57
2018-12-05T15:23:13.464Z,3.83
2018-12-05T15:25:41.393Z,4.83
2018-12-05T15:28:09.385Z,4.22
2018-12-05T15:30:37.388Z,4.50
2018-12-05T15:33:05.407Z,5.10
2018-12-05T15:35:33.403Z,4.53
2018-12-05T15:38:01.384Z,4.75
2018-12-05T15:40:29.394Z,4.75
2018-12-05T15:42:57.406Z,4.80
2018-12-05T15:45:25.393Z,4.13
2018-12-05T15:47:53.338Z,4.92
2018-12-05T15:50:21.318Z,4.97
2018-12-05T15:52:50.482Z,4.97
2018-12-05T15:55:18.481Z,4.95
2018-12-05T15:57:46.426Z,6.05
2018-12-05T16:00:14.467Z,4.90
2018-12-05T16:02:42.563Z,5.30
2018-12-05T16:05:10.525Z,5.47
2018-12-05T16:07:38.498Z,5.17
2018-12-05T16:10:06.993Z,5.28
2018-12-05T16:12:34.932Z,10.10
2018-12-05T16:15:02.933Z,9.90
2018-12-05T16:17:30.898Z,9.90
2018-12-05T16:19:58.870Z,10.20
2018-12-05T16:22:26.895Z,8.93
2018-12-05T16:24:54.848Z,9.50
2018-12-05T16:27:22.823Z,9.38
2018-12-05T16:29:50.904Z,8.93
2018-12-05T16:32:18.893Z,8.00
2018-12-05T16:34:46.948Z,9.50
2018-12-05T16:37:14.941Z,10.28
2018-12-05T16:39:42.934Z,10.90
2018-12-05T16:42:10.932Z,12.85
2018-12-05T16:44:38.874Z,10.78
2018-12-05T16:47:06.860Z,11.30
2018-12-05T16:49:34.857Z,8.63
2018-12-05T16:52:02.858Z,10.38
2018-12-05T16:54:30.986Z,8.60
2018-12-05T16:56:58.913Z,8.40
2018-12-05T16:59:26.923Z,8.35
2018-12-05T17:01:54.936Z,8.73
2018-12-05T17:04:22.909Z,10.60
2018-12-05T17:06:50.857Z,8.28
2018-12-05T17:09:25.803Z,8.35
2018-12-05T17:11:48.878Z,8.77
2018-12-05T17:14:16.833Z,8.20
2018-12-05T17:16:44.799Z,8.70
2018-12-05T17:19:12.766Z,9.03
2018-12-05T17:21:40.776Z,8.73
2018-12-05T17:24:09.296Z,9.90
2018-12-05T17:26:37.273Z,9.85
2018-12-05T17:29:05.279Z,12.25
2018-12-05T17:31:33.223Z,9.70
2018-12-05T17:34:01.243Z,11.70
2018-12-05T17:36:29.204Z,9.30
2018-12-05T17:38:57.179Z,8.55
2018-12-05T17:41:25.193Z,8.60
2018-12-05T17:43:54.226Z,9.23
2018-12-05T17:46:22.287Z,8.70
2018-12-05T17:48:50.367Z,7.83
2018-12-05T17:51:18.351Z,9.33
2018-12-05T17:53:46.355Z,10.55
2018-12-05T17:56:14.336Z,11.30
2018-12-05T17:58:42.327Z,11.20
2018-12-05T18:01:10.367Z,9.55
2018-12-05T18:03:38.319Z,11.17
2018-12-05T18:06:07.477Z,10.70
2018-12-05T18:08:35.471Z,10.17
2018-12-05T18:11:03.446Z,11.08
2018-12-05T18:13:31.443Z,11.50
2018-12-05T18:15:59.446Z,11.57
2018-12-05T18:18:27.450Z,11.35
2018-12-05T18:20:55.423Z,11.75
2018-12-05T18:23:23.552Z,11.20
2018-12-05T18:25:51.534Z,10.72
2018-12-05T18:28:19.553Z,9.18
2018-12-05T18:30:47.643Z,9.70
2018-12-05T18:33:15.689Z,10.90
2018-12-05T18:35:43.678Z,9.58
2018-12-05T18:38:11.648Z,10.00
2018-12-05T18:40:39.586Z,10.25
2018-12-05T18:43:07.565Z,9.93
2018-12-05T18:45:35.783Z,10.03
2018-12-05T18:48:03.891Z,10.20
2018-12-05T18:50:31.873Z,11.33
2018-12-05T18:52:59.834Z,10.00
2018-12-05T18:55:27.801Z,10.15
2018-12-05T18:57:55.830Z,10.45
2018-12-05T19:00:23.813Z,10.73
2018-12-05T19:02:51.807Z,11.25
2018-12-05T19:05:19.776Z,11.53
2018-12-05T19:07:47.799Z,11.20
2018-12-05T19:10:15.817Z,11.80
2018-12-05T19:12:43.847Z,11.27
2018-12-05T19:15:11.866Z,12.82
2018-12-05T19:17:39.913Z,12.70
2018-12-05T19:20:07.888Z,11.27
2018-12-05T19:22:35.861Z,12.88
2018-12-05T19:25:04.074Z,13.20
2018-12-05T19:27:32.044Z,15.75
2018-12-05T19:30:00.055Z,14.03
2018-12-05T19:32:28.072Z,15.53
2018-12-05T19:34:56.039Z,13.22
2018-12-05T19:37:24.249Z,12.73
2018-12-05T19:39:52.262Z,13.13
2018-12-05T19:42:20.233Z,13.65
2018-12-05T19:44:48.253Z,14.55
2018-12-05T19:47:17.353Z,15.40
2018-12-05T19:49:45.473Z,14.53
2018-12-05T19:52:13.506Z,14.47
2018-12-05T19:54:41.484Z,15.72
2018-12-05T19:57:09.451Z,14.18
2018-12-05T19:59:37.511Z,12.85
2018-12-05T20:02:05.554Z,11.97
2018-12-05T20:04:33.595Z,12.23
2018-12-05T20:07:01.657Z,12.83
2018-12-05T20:09:29.664Z,11.40
2018-12-05T20:11:57.686Z,11.93
2018-12-05T20:14:28.949Z,12.45
2018-12-05T20:16:57.395Z,11.33
2018-12-05T20:19:25.326Z,10.20
2018-12-05T20:21:53.414Z,11.43
2018-12-05T20:24:22.289Z,10.55
2018-12-05T20:26:50.473Z,11.40
2018-12-05T20:29:18.483Z,10.72
2018-12-05T20:31:46.406Z,12.53
2018-12-05T20:34:14.419Z,12.10
2018-12-05T20:36:42.441Z,12.37
2018-12-05T20:39:10.801Z,13.05
2018-12-05T20:41:38.859Z,12.75
2018-12-05T20:44:06.897Z,12.07
2018-12-05T20:46:34.922Z,11.80
2018-12-05T20:49:03.066Z,12.10
2018-12-05T20:51:31.127Z,12.05
2018-12-05T20:53:59.664Z,13.88
2018-12-05T20:56:27.776Z,13.48
2018-12-05T20:58:55.812Z,11.95
2018-12-05T21:01:24.168Z,12.98
2018-12-05T21:03:52.639Z,14.05
2018-12-05T21:06:20.593Z,12.97
2018-12-05T21:08:48.649Z,11.57
2018-12-05T21:11:16.927Z,11.50
2018-12-05T21:13:44.948Z,11.43
2018-12-05T21:16:12.918Z,13.58
2018-12-05T21:18:40.888Z,13.48
2018-12-05T21:21:08.927Z,15.30
2018-12-05T21:23:37.084Z,20.20
2018-12-05T21:26:05.123Z,21.75
2018-12-05T21:28:33.097Z,20.35
2018-12-05T21:31:01.031Z,19.15
2018-12-05T21:33:29.081Z,17.55
2018-12-05T21:35:57.135Z,13.30
2018-12-05T21:38:26.229Z,12.33
2018-12-05T21:40:54.249Z,13.68
2018-12-05T21:43:22.274Z,12.35
2018-12-05T21:45:50.275Z,12.45
2018-12-05T21:48:18.297Z,11.43
2018-12-05T21:50:46.313Z,10.85
2018-12-05T21:53:14.414Z,9.90
2018-12-05T21:55:42.382Z,10.00
2018-12-05T21:58:10.393Z,11.00
2018-12-05T22:00:38.467Z,11.03
2018-12-05T22:03:06.635Z,11.30
2018-12-05T22:05:36.677Z,11.85
2018-12-05T22:08:04.794Z,10.70
2018-12-05T22:10:32.839Z,10.75
2018-12-05T22:13:00.941Z,12.90
2018-12-05T22:15:29.198Z,11.75
2018-12-05T22:17:57.202Z,11.50
2018-12-05T22:20:25.220Z,11.40
2018-12-05T22:22:53.278Z,10.80
2018-12-05T22:25:21.242Z,10.15
2018-12-05T22:27:49.233Z,10.95
2018-12-05T22:30:17.179Z,10.28
2018-12-05T22:32:45.182Z,11.10
2018-12-05T22:35:13.130Z,12.33
2018-12-05T22:37:41.096Z,12.95
2018-12-05T22:40:09.143Z,12.45
2018-12-05T22:42:37.135Z,12.73
2018-12-05T22:45:05.150Z,11.35
2018-12-05T22:47:33.176Z,11.30
2018-12-05T22:50:01.099Z,12.33
2018-12-05T22:52:29.117Z,13.80
2018-12-05T22:54:57.077Z,15.55
2018-12-05T22:57:25.040Z,15.88
2018-12-05T22:59:52.968Z,14.60
2018-12-05T23:02:20.962Z,15.80
2018-12-05T23:04:48.907Z,14.25
2018-12-05T23:07:16.871Z,14.70
2018-12-05T23:09:44.934Z,14.70
2018-12-05T23:12:12.959Z,13.72
2018-12-05T23:14:40.974Z,14.35
2018-12-05T23:17:08.920Z,13.50
2018-12-05T23:19:36.909Z,14.43
2018-12-05T23:22:04.885Z,14.40
2018-12-05T23:24:32.895Z,14.18
2018-12-05T23:27:00.821Z,13.43
2018-12-05T23:29:28.885Z,13.33
2018-12-05T23:31:56.898Z,14.03
2018-12-05T23:34:24.958Z,13.65
2018-12-05T23:36:53.090Z,13.72
2018-12-05T23:39:21.082Z,14.15
2018-12-05T23:41:49.030Z,15.10
2018-12-05T23:44:17.011Z,12.63
2018-12-05T23:46:45.002Z,10.72
2018-12-05T23:49:12.941Z,11.90
2018-12-05T23:51:40.912Z,11.45
2018-12-05T23:54:08.886Z,11.08
2018-12-05T23:56:36.845Z,12.15
2018-12-05T23:59:05.933Z,11.45
